Time,TemperatureF,DewpointF,PressureIn,WindDirection,WindDirectionDegrees,WindSpeedMPH,WindSpeedGustMPH,Humidity,HourlyPrecipIn,Conditions,Clouds,dailyrainin,SoftwareType,DateUTC
2013-06-21 00:04:00,62.9,55.0,29.75,West,269,0.0,-999.0,76,-99.99,,,0.00,weatherlink.com 1.10,2013-06-20 23:04:00,
2013-06-21 00:19:00,62.6,55.0,29.75,NW,315,0.0,-999.0,76,-99.99,,,0.00,weatherlink.com 1.10,2013-06-20 23:19:00,
2013-06-21 00:34:00,62.5,56.0,29.75,NW,312,0.0,-999.0,78,-99.99,,,0.00,weatherlink.com 1.10,2013-06-20 23:34:00,
2013-06-21 00:49:00,62.1,56.0,29.75,NNW,329,0.0,-999.0,79,-99.99,,,0.00,weatherlink.com 1.10,2013-06-20 23:49:00,
2013-06-21 01:04:00,61.7,56.0,29.75,NW,311,0.0,-999.0,81,-99.99,,,0.00,weatherlink.com 1.10,2013-06-21 00:04:00,
2013-06-21 01:19:00,61.3,56.0,29.75,WNW,288,0.0,-999.0,82,-99.99,,,0.00,weatherlink.com 1.10,2013-06-21 00:19:00,
2013-06-21 01:34:00,61.1,56.0,29.76,WNW,286,0.0,-999.0,83,-99.99,,,0.00,weatherlink.com 1.10,2013-06-21 00:34:00,
2013-06-21 01:49:00,60.8,56.0,29.75,West,281,0.0,-999.0,85,-99.99,,,0.00,weatherlink.com 1.10,2013-06-21 00:49:00,
2013-06-21 02:04:00,60.6,56.0,29.75,WSW,252,0.0,-999.0,86,-99.99,,,0.00,weatherlink.com 1.10,2013-06-21 01:04:00,
2013-06-21 02:19:00,60.5,57.0,29.75,WNW,295,0.0,-999.0,87,-99.99,,,0.00,weatherlink.com 1.10,2013-06-21 01:19:00,
2013-06-21 02:34:00,60.4,57.0,29.75,West,275,0.0,-999.0,87,-99.99,,,0.00,weatherlink.com 1.10,2013-06-21 01:34:00,
2013-06-21 02:49:00,60.0,57.0,29.75,West,265,0.0,-999.0,88,-99.99,,,0.00,weatherlink.com 1.10,2013-06-21 01:49:00,
2013-06-21 03:04:00,59.5,56.0,29.75,WNW,298,0.0,-999.0,89,-99.99,,,0.00,weatherlink.com 1.10,2013-06-21 02:04:00,
2013-06-21 03:19:00,59.4,57.0,29.76,West,277,0.0,-999.0,90,-99.99,,,0.00,weatherlink.com 1.10,2013-06-21 02:19:00,
2013-06-21 03:34:00,59.4,56.0,29.76,West,275,0.0,-999.0,89,-99.99,,,0.00,weatherlink.com 1.10,2013-06-21 02:34:00,
2013-06-21 03:49:00,59.3,56.0,29.76,West,262,0.0,-999.0,89,-99.99,,,0.00,weatherlink.com 1.10,2013-06-21 02:49:00,
2013-06-21 04:04:00,59.1,56.0,29.76,WNW,303,0.0,-999.0,88,-99.99,,,0.00,weatherlink.com 1.10,2013-06-21 03:04:00,
2013-06-21 04:19:00,58.9,55.0,29.76,NW,308,0.0,-999.0,87,-99.99,,,0.00,weatherlink.com 1.10,2013-06-21 03:19:00,
2013-06-21 04:34:00,58.7,55.0,29.77,WNW,303,0.0,-999.0,88,-99.99,,,0.00,weatherlink.com 1.10,2013-06-21 03:34:00,
2013-06-21 04:49:00,58.6,55.0,29.77,WNW,288,0.0,-999.0,88,-99.99,,,0.00,weatherlink.com 1.10,2013-06-21 03:49:00,
2013-06-21 05:05:00,58.5,55.0,29.77,NW,304,0.0,-999.0,88,-99.99,,,0.00,weatherlink.com 1.10,2013-06-21 04:05:00,
2013-06-21 05:20:00,58.5,55.0,29.77,NW,319,0.0,-999.0,87,-99.99,,,0.00,weatherlink.com 1.10,2013-06-21 04:20:00,
2013-06-21 05:35:00,58.5,55.0,29.77,NW,304,0.0,-999.0,87,-99.99,,,0.00,weatherlink.com 1.10,2013-06-21 04:35:00,
2013-06-21 05:50:00,58.5,55.0,29.77,WNW,291,0.0,-999.0,87,-99.99,,,0.00,weatherlink.com 1.10,2013-06-21 04:50:00,
2013-06-21 06:05:00,58.2,55.0,29.77,WNW,294,0.0,-999.0,88,-99.99,,,0.00,weatherlink.com 1.10,2013-06-21 05:05:00,
2013-06-21 06:20:00,58.1,55.0,29.77,WNW,288,0.0,-999.0,88,-99.99,,,0.00,weatherlink.com 1.10,2013-06-21 05:20:00,
2013-06-21 06:35:00,58.0,55.0,29.78,WNW,300,0.0,-999.0,89,-99.99,,,0.00,weatherlink.com 1.10,2013-06-21 05:35:00,
2013-06-21 06:50:00,57.7,55.0,29.77,NW,313,0.0,-999.0,90,-99.99,,,0.00,weatherlink.com 1.10,2013-06-21 05:50:00,
2013-06-21 07:05:00,57.4,55.0,29.78,NNW,334,0.0,-999.0,91,-99.99,,,0.00,weatherlink.com 1.10,2013-06-21 06:05:00,
2013-06-21 07:20:00,57.4,55.0,29.78,NNW,327,0.0,-999.0,90,-99.99,,,0.00,weatherlink.com 1.10,2013-06-21 06:20:00,
2013-06-21 07:35:00,57.3,55.0,29.78,NW,322,0.0,-999.0,90,-99.99,,,0.00,weatherlink.com 1.10,2013-06-21 06:35:00,
2013-06-21 07:50:00,57.3,55.0,29.78,NW,321,0.0,-999.0,90,-99.99,,,0.00,weatherlink.com 1.10,2013-06-21 06:50:00,
2013-06-21 08:05:00,57.3,54.0,29.78,NW,308,0.0,-999.0,88,-99.99,,,0.00,weatherlink.com 1.10,2013-06-21 07:05:00,
2013-06-21 08:20:00,57.5,53.0,29.79,NNW,336,0.0,-999.0,86,-99.99,,,0.00,weatherlink.com 1.10,2013-06-21 07:20:00,
2013-06-21 08:35:00,57.6,53.0,29.79,NNW,340,0.0,-999.0,83,-99.99,,,0.00,weatherlink.com 1.10,2013-06-21 07:35:00,
2013-06-21 08:50:00,58.0,53.0,29.79,West,279,0.0,-999.0,82,-99.99,,,0.00,weatherlink.com 1.10,2013-06-21 07:50:00,
2013-06-21 09:05:00,58.5,52.0,29.79,North,5,0.0,-999.0,80,-99.99,,,0.00,weatherlink.com 1.10,2013-06-21 08:05:00,
2013-06-21 09:20:00,58.7,52.0,29.79,NW,307,0.0,-999.0,79,-99.99,,,0.00,weatherlink.com 1.10,2013-06-21 08:20:00,
2013-06-21 09:35:00,58.5,52.0,29.80,West,281,0.0,-999.0,79,-99.99,,,0.00,weatherlink.com 1.10,2013-06-21 08:35:00,
2013-06-21 09:50:00,58.8,52.0,29.80,NW,309,0.0,-999.0,78,-99.99,,,0.00,weatherlink.com 1.10,2013-06-21 08:50:00,
2013-06-21 10:05:00,59.0,52.0,29.79,WSW,257,0.0,-999.0,77,-99.99,,,0.00,weatherlink.com 1.10,2013-06-21 09:05:00,
2013-06-21 10:20:00,59.1,52.0,29.80,West,274,0.0,-999.0,77,-99.99,,,0.00,weatherlink.com 1.10,2013-06-21 09:20:00,
2013-06-21 10:35:00,59.3,52.0,29.80,West,279,0.0,-999.0,76,-99.99,,,0.00,weatherlink.com 1.10,2013-06-21 09:35:00,
2013-06-21 10:50:00,58.9,52.0,29.80,West,262,0.0,-999.0,79,-99.99,,,0.00,weatherlink.com 1.10,2013-06-21 09:50:00,
2013-06-21 11:05:00,59.0,52.0,29.79,West,264,0.0,-999.0,78,-99.99,,,0.00,weatherlink.com 1.10,2013-06-21 10:05:00,
2013-06-21 11:20:00,59.2,52.0,29.80,WSW,248,0.0,-999.0,78,-99.99,,,0.00,weatherlink.com 1.10,2013-06-21 10:20:00,
2013-06-21 11:35:00,59.1,53.0,29.80,WSW,254,0.0,-999.0,80,-99.99,,,0.00,weatherlink.com 1.10,2013-06-21 10:35:00,
2013-06-21 11:50:00,59.8,54.0,29.79,WSW,239,0.0,-999.0,80,-99.99,,,0.00,weatherlink.com 1.10,2013-06-21 10:50:00,
2013-06-21 12:05:00,60.6,52.0,29.79,West,277,0.0,-999.0,74,-99.99,,,0.00,weatherlink.com 1.10,2013-06-21 11:05:00,
2013-06-21 12:20:00,61.4,52.0,29.79,West,270,0.0,-999.0,70,-99.99,,,0.00,weatherlink.com 1.10,2013-06-21 11:20:00,
2013-06-21 12:35:00,62.2,52.0,29.79,WSW,241,0.0,-999.0,69,-99.99,,,0.00,weatherlink.com 1.10,2013-06-21 11:35:00,
2013-06-21 12:50:00,62.5,51.0,29.78,WNW,292,0.0,-999.0,66,-99.99,,,0.00,weatherlink.com 1.10,2013-06-21 11:50:00,
2013-06-21 13:05:00,62.7,50.0,29.78,West,275,0.0,-999.0,63,-99.99,,,0.00,weatherlink.com 1.10,2013-06-21 12:05:00,
2013-06-21 13:20:00,63.0,50.0,29.78,WNW,290,0.0,-999.0,63,-99.99,,,0.00,weatherlink.com 1.10,2013-06-21 12:20:00,
2013-06-21 13:35:00,63.6,50.0,29.77,West,278,0.0,-999.0,62,-99.99,,,0.00,weatherlink.com 1.10,2013-06-21 12:35:00,
2013-06-21 13:50:00,64.1,49.0,29.77,West,266,0.0,-999.0,59,-99.99,,,0.00,weatherlink.com 1.10,2013-06-21 12:50:00,
2013-06-21 14:05:00,65.8,49.0,29.77,WSW,239,0.0,-999.0,56,-99.99,,,0.00,weatherlink.com 1.10,2013-06-21 13:05:00,
2013-06-21 14:20:00,65.3,49.0,29.77,WSW,252,0.0,-999.0,57,-99.99,,,0.00,weatherlink.com 1.10,2013-06-21 13:20:00,
2013-06-21 14:35:00,64.8,50.0,29.76,SSW,199,0.0,-999.0,59,-99.99,,,0.00,weatherlink.com 1.10,2013-06-21 13:35:00,
2013-06-21 14:50:00,65.0,50.0,29.76,SSW,207,0.0,-999.0,58,-99.99,,,0.00,weatherlink.com 1.10,2013-06-21 13:50:00,
2013-06-21 15:05:00,66.3,48.0,29.75,SW,219,0.0,-999.0,52,-99.99,,,0.00,weatherlink.com 1.10,2013-06-21 14:05:00,
2013-06-21 15:20:00,67.0,49.0,29.75,WSW,247,0.0,-999.0,52,-99.99,,,0.00,weatherlink.com 1.10,2013-06-21 14:20:00,
2013-06-21 15:36:00,67.0,49.0,29.74,WSW,238,0.0,-999.0,52,-99.99,,,0.00,weatherlink.com 1.10,2013-06-21 14:36:00,
2013-06-21 15:50:00,66.8,47.0,29.74,WSW,242,0.0,-999.0,50,-99.99,,,0.00,weatherlink.com 1.10,2013-06-21 14:50:00,
2013-06-21 16:06:00,66.8,48.0,29.73,WNW,288,0.0,-999.0,51,-99.99,,,0.00,weatherlink.com 1.10,2013-06-21 15:06:00,
2013-06-21 16:21:00,67.6,48.0,29.72,SW,219,0.0,-999.0,50,-99.99,,,0.00,weatherlink.com 1.10,2013-06-21 15:21:00,
2013-06-21 16:36:00,67.7,49.0,29.71,West,265,0.0,-999.0,51,-99.99,,,0.00,weatherlink.com 1.10,2013-06-21 15:36:00,
2013-06-21 16:51:00,67.5,49.0,29.70,SW,232,0.0,-999.0,51,-99.99,,,0.00,weatherlink.com 1.10,2013-06-21 15:51:00,
2013-06-21 17:06:00,67.8,48.0,29.70,SW,218,0.0,-999.0,50,-99.99,,,0.00,weatherlink.com 1.10,2013-06-21 16:06:00,
2013-06-21 17:21:00,67.4,47.0,29.69,WSW,241,0.0,-999.0,49,-99.99,,,0.00,weatherlink.com 1.10,2013-06-21 16:21:00,
2013-06-21 17:36:00,67.4,48.0,29.69,West,265,0.0,-999.0,50,-99.99,,,0.00,weatherlink.com 1.10,2013-06-21 16:36:00,
2013-06-21 17:51:00,66.7,48.0,29.68,West,275,0.0,-999.0,52,-99.99,,,0.00,weatherlink.com 1.10,2013-06-21 16:51:00,
2013-06-21 18:06:00,66.8,49.0,29.67,SW,224,0.0,-999.0,54,-99.99,,,0.00,weatherlink.com 1.10,2013-06-21 17:06:00,
2013-06-21 18:21:00,66.5,49.0,29.67,WSW,242,0.0,-999.0,54,-99.99,,,0.00,weatherlink.com 1.10,2013-06-21 17:21:00,
2013-06-21 18:36:00,66.3,50.0,29.66,WSW,244,0.0,-999.0,57,-99.99,,,0.00,weatherlink.com 1.10,2013-06-21 17:36:00,
2013-06-21 18:51:00,65.7,51.0,29.66,West,261,0.0,-999.0,60,-99.99,,,0.00,weatherlink.com 1.10,2013-06-21 17:51:00,
2013-06-21 19:06:00,63.9,53.0,29.66,SW,232,0.0,-999.0,68,-99.99,,,0.01,weatherlink.com 1.10,2013-06-21 18:06:00,
2013-06-21 19:36:00,62.0,52.0,29.65,SW,236,0.0,-999.0,69,-99.99,,,0.01,weatherlink.com 1.10,2013-06-21 18:36:00,
2013-06-21 19:51:00,61.7,52.0,29.64,SSW,193,0.0,-999.0,70,-99.99,,,0.01,weatherlink.com 1.10,2013-06-21 18:51:00,
2013-06-21 20:06:00,60.8,51.0,29.63,SSW,197,0.0,-999.0,71,-99.99,,,0.01,weatherlink.com 1.10,2013-06-21 19:06:00,
2013-06-21 20:21:00,59.8,51.0,29.61,SSW,200,0.0,-999.0,73,-99.99,,,0.01,weatherlink.com 1.10,2013-06-21 19:21:00,
2013-06-21 20:36:00,59.5,52.0,29.61,South,173,0.0,-999.0,75,-99.99,,,0.01,weatherlink.com 1.10,2013-06-21 19:36:00,
2013-06-21 20:51:00,59.6,51.0,29.60,SSW,205,0.0,-999.0,72,-99.99,,,0.01,weatherlink.com 1.10,2013-06-21 19:51:00,
2013-06-21 21:06:00,60.1,50.0,29.60,South,182,0.0,-999.0,69,-99.99,,,0.01,weatherlink.com 1.10,2013-06-21 20:06:00,
2013-06-21 21:21:00,59.4,50.0,29.60,West,259,0.0,-999.0,70,-99.99,,,0.01,weatherlink.com 1.10,2013-06-21 20:21:00,
2013-06-21 21:36:00,57.8,50.0,29.60,SW,219,0.0,-999.0,75,-99.99,,,0.01,weatherlink.com 1.10,2013-06-21 20:36:00,
2013-06-21 21:52:00,56.8,50.0,29.59,WSW,241,0.0,-999.0,79,-99.99,,,0.01,weatherlink.com 1.10,2013-06-21 20:52:00,
2013-06-21 22:06:00,56.4,51.0,29.59,SW,217,0.0,-999.0,81,-99.99,,,0.01,weatherlink.com 1.10,2013-06-21 21:06:00,
2013-06-21 22:21:00,56.2,51.0,29.58,WSW,252,0.0,-999.0,82,-99.99,,,0.01,weatherlink.com 1.10,2013-06-21 21:21:00,
2013-06-21 22:36:00,56.4,51.0,29.57,West,275,0.0,-999.0,82,-99.99,,,0.01,weatherlink.com 1.10,2013-06-21 21:36:00,
2013-06-21 22:51:00,56.4,51.0,29.56,West,262,0.0,-999.0,83,-99.99,,,0.01,weatherlink.com 1.10,2013-06-21 21:51:00,
2013-06-21 23:06:00,56.3,51.0,29.55,SSW,199,0.0,-999.0,83,-99.99,,,0.01,weatherlink.com 1.10,2013-06-21 22:06:00,
2013-06-21 23:21:00,56.9,52.0,29.55,SW,229,0.0,-999.0,82,-99.99,,,0.01,weatherlink.com 1.10,2013-06-21 22:21:00,
2013-06-21 23:36:00,57.2,52.0,29.53,SW,235,0.0,-999.0,82,-99.99,,,0.01,weatherlink.com 1.10,2013-06-21 22:36:00,
2013-06-21 23:51:00,57.5,52.0,29.52,SW,219,0.0,-999.0,82,-99.99,,,0.01,weatherlink.com 1.10,2013-06-21 22:51:00,